Latest Coastal Weather Observations for Geraldton Airport

IDW60701

Issued at 10:43 pm WST Sunday 26 February 2017 (issued every 10 minutes, with the page automatically refreshed every 10 minutes)

About coastal observations | Map of coastal stations | Coastal observations for WA | Marine services | Other Formats
Station Details ID: 008315 Name: GERALDTON AIRPORT Lat: -28.80 Lon: 114.70 Height: 29.7 m
Data from the previous 72 hours. | See also: Recent months at Geraldton Airport
Date/Time
WST
Temp
°C
Wind Pressure Rain since
9am
mm
Weather Cloud Vis
km
Sea
Height
m
Swell
Dir  Spd
kts
Gust
kts
hPa Trend Height
m
Period
s
Dir
26/10:30pm 22.2 S 11 13 1013.2 - 0.0 - - 10 - - - -
26/10:00pm 22.2 S 10 13 1013.3 - 0.0 - - 10 - - - -
26/09:30pm 22.3 S 10 14 1013.1 - 0.0 - - 10 - - - -
26/09:00pm 22.4 S 9 11 1013.0 - 0.0 - - 10 - - - -
26/08:30pm 22.5 S 11 14 1012.8 - 0.0 - Partly cloudy 10 - - - -
26/08:26pm 22.5 S 11 14 1012.8 - 0.0 - Partly cloudy 10 - - - -
26/08:00pm 22.8 S 12 16 1012.5 - 0.0 - Partly cloudy 10 - - - -
26/07:47pm 22.8 S 11 16 1012.4 - 0.0 - Partly cloudy 10 - - - -
26/07:30pm 22.7 S 11 16 1012.3 - 0.0 - Partly cloudy 10 - - - -
26/07:13pm 22.8 S 13 16 1012.0 - 0.0 - Partly cloudy 10 - - - -
26/07:00pm 23.0 S 12 16 1011.8 - 0.0 - Partly cloudy 10 - - - -
26/06:54pm 23.1 S 12 17 1011.8 - 0.0 - Partly cloudy 10 - - - -
26/06:30pm 23.7 S 12 17 1011.5 - 0.0 - Partly cloudy 10 - - - -
26/06:00pm 24.5 S 13 18 1010.9 - 0.0 - - 10 - - - -
26/05:30pm 25.0 S 14 18 1011.2 - 0.0 - - 10 - - - -
26/05:00pm 25.9 S 13 17 1011.3 - 0.0 - - 10 - - - -
26/04:30pm 26.5 SSW 14 18 1011.2 - 0.0 - - 10 - - - -
26/04:00pm 26.6 S 12 16 1011.1 - 0.0 - - 10 - - - -
26/03:30pm 27.5 S 11 15 1011.2 - 0.0 - - 10 - - - -
26/03:00pm 27.4 SSW 13 18 1011.2 - 0.0 - - 10 - - - -
26/02:30pm 27.8 SSW 14 18 1011.5 - 0.0 - - 10 - - - -
26/02:00pm 27.5 SSW 12 18 1011.8 - 0.0 - - 10 - - - -
26/01:30pm 27.8 SSW 13 16 1012.0 - 0.0 - - 10 - - - -
26/01:00pm 27.4 SSW 14 19 1012.2 - 0.0 - - 10 - - - -
26/12:30pm 28.1 SSW 12 17 1012.3 - 0.0 - Partly cloudy 10 - - - -
26/12:00pm 28.1 SSW 11 13 1012.2 - 0.0 - Mostly clear 10 - - - -
26/11:30am 27.1 SSW 14 18 1012.4 - 0.0 - - 10 - - - -
26/11:00am 27.4 S 11 15 1012.5 - 0.0 - - 10 - - - -
26/10:30am 26.8 S 12 16 1012.6 - 0.0 - - 10 - - - -
26/10:00am 26.7 S 12 15 1012.5 - 0.0 - - 10 - - - -
26/09:30am 25.6 SSE 8 11 1012.4 - 0.0 - - 10 - - - -
26/09:00am 25.4 SE 8 12 1012.1 - 0.0 - - 10 - - - -
26/08:30am 24.3 SE 8 11 1012.2 - 0.0 - Partly cloudy 10 - - - -
26/08:22am 23.9 SSE 8 11 1012.2 - 0.0 - Partly cloudy 10 - - - -
26/08:00am 23.4 S 10 14 1012.0 - 0.0 - Cloudy 10 - - - -
26/07:30am 22.9 S 8 11 1012.1 - 0.0 - Partly cloudy 10 - - - -
26/07:00am 22.8 S 8 10 1012.1 - 0.0 - Partly cloudy 10 - - - -
26/06:30am 22.8 S 5 9 1012.0 - 0.0 - Cloudy 10 - - - -
26/06:00am 22.5 S 7 11 1011.4 - 0.0 - Mostly cloudy 10 - - - -
26/05:30am 22.5 SSE 5 6 1011.6 - 0.0 - Cloudy 10 - - - -
26/05:00am 22.4 S 6 7 1011.4 - 0.0 - Cloudy 10 - - - -
26/04:30am 22.7 SSW 5 6 1011.4 - 0.0 - Cloudy 10 - - - -
26/04:00am 22.7 N 3 6 1011.9 - 0.0 - Cloudy 10 - - - -
26/03:30am 22.3 NE 5 6 1011.7 - 0.0 - Cloudy 10 - - - -
26/03:00am 21.5 S 2 5 1010.9 - 0.0 - Partly cloudy 10 - - - -
26/02:30am 22.2 S 5 6 1011.0 - 0.0 - Partly cloudy 10 - - - -
26/02:05am 21.7 S 5 5 1011.1 - 0.0 - Partly cloudy 10 - - - -
26/02:00am 21.6 S 5 5 1011.1 - 0.0 - Partly cloudy 10 - - - -
26/01:30am 22.0 S 6 7 1011.3 - 0.0 - Partly cloudy 10 - - - -
26/01:24am 22.2 S 6 7 1011.3 - 0.0 - Partly cloudy 10 - - - -
26/01:00am 22.7 S 7 8 1011.7 - 0.0 - Partly cloudy 10 - - - -
26/12:30am 23.4 SSW 3 4 1012.0 - 0.0 - Partly cloudy 10 - - - -
26/12:00am 23.0 NNW 3 4 1012.1 - 0.0 - Partly cloudy 10 - - - -
 
Date/Time
WST
Temp
°C
Wind Pressure Rain since
9am
mm
Weather Cloud Vis
km
Sea
Height
m
Swell
Dir  Spd
kts
Gust
kts
hPa Trend Height
m
Period
s
Dir
25/11:56pm 22.9 N 3 4 1012.3 - 0.0 - Partly cloudy 10 - - - -
25/11:30pm 22.6 N 5 7 1012.5 - 0.0 - Partly cloudy 10 - - - -
25/11:00pm 23.1 N 8 9 1012.5 - 0.0 - - 10 - - - -
25/10:30pm 23.9 NNW 9 11 1013.0 - 0.0 - - 10 - - - -
25/10:00pm 24.2 NNW 8 10 1012.7 - 0.0 - - 10 - - - -
25/09:30pm 24.1 NW 6 7 1012.4 - 0.0 - - 10 - - - -
25/09:00pm 24.8 WNW 7 8 1012.1 - 0.0 - - 10 - - - -
25/08:30pm 25.4 NW 7 8 1011.9 - 0.0 - - 10 - - - -
25/08:00pm 25.9 WNW 7 8 1011.8 - 0.0 - - 10 - - - -
25/07:30pm 27.1 WNW 7 8 1011.4 - 0.0 - - 10 - - - -
25/07:00pm 28.9 WSW 8 9 1011.1 - 0.0 - - 10 - - - -
25/06:30pm 31.5 SW 5 6 1010.7 - 0.0 - - 10 - - - -
25/06:00pm 32.6 W 3 5 1010.5 - 0.0 - - 10 - - - -
25/05:30pm 32.4 NW 3 8 1010.8 - 0.0 - - 10 - - - -
25/05:00pm 32.1 W 7 9 1010.4 - 0.0 - - 10 - - - -
25/04:30pm 32.5 W 9 13 1010.6 - 0.0 - - 10 - - - -
25/04:00pm 33.7 W 12 15 1010.5 - 0.0 - - 10 - - - -
25/03:30pm 35.3 W 11 17 1010.2 - 0.0 - - 10 - - - -
25/03:00pm 34.6 W 9 12 1010.2 - 0.0 - - 10 - - - -
25/02:30pm 34.5 W 10 16 1010.6 - 0.0 - - 10 - - - -
25/02:00pm 33.8 W 10 14 1011.1 - 0.0 - - 10 - - - -
25/01:30pm 32.7 W 13 17 1011.5 - 0.0 - - 10 - - - -
25/01:00pm 33.4 W 14 18 1011.7 - 0.0 - - 10 - - - -
25/12:30pm 34.1 W 15 19 1011.8 - 0.0 - - 10 - - - -
25/12:00pm 35.0 W 14 16 1011.7 - 0.0 - - 10 - - - -
25/11:49am 34.4 W 14 17 1011.9 - 0.0 - - 10 - - - -
25/11:30am 39.6 NW 11 15 1011.9 - 0.0 - - 10 - - - -
25/11:00am 40.5 NNE 15 22 1012.1 - 0.0 - - 10 - - - -
25/10:30am 39.0 NNE 16 22 1012.4 - 0.0 - - 10 - - - -
25/10:00am 37.2 NE 16 19 1012.6 - 0.0 - - 10 - - - -
25/09:30am 36.2 NNE 19 24 1012.7 - 0.0 - - 10 - - - -
25/09:00am 34.8 NE 19 24 1012.5 - 0.0 - - 10 - - - -
25/08:30am 33.7 NE 18 22 1012.8 - 0.0 - - 10 - - - -
25/08:00am 32.2 NE 18 23 1012.8 - 0.0 - - 10 - - - -
25/07:30am 30.3 NE 18 23 1012.9 - 0.0 - - 10 - - - -
25/07:00am 29.2 NE 16 21 1012.9 - 0.0 - - 10 - - - -
25/06:30am 28.1 NE 17 20 1012.6 - 0.0 - - 10 - - - -
25/06:00am 27.7 ENE 16 22 1012.3 - 0.0 - - 10 - - - -
25/05:30am 27.7 NE 14 17 1012.5 - 0.0 - - 10 - - - -
25/05:00am 27.5 NNE 11 14 1012.5 - 0.0 - - 10 - - - -
25/04:30am 27.6 NE 13 16 1012.5 - 0.0 - - 10 - - - -
25/04:00am 26.2 NE 11 13 1012.4 - 0.0 - - 10 - - - -
25/03:30am 23.9 NNE 6 8 1012.5 - 0.0 - - 10 - - - -
25/03:00am 24.8 NE 9 11 1012.4 - 0.0 - - 10 - - - -
25/02:30am 24.8 NNE 8 9 1012.7 - 0.0 - - 10 - - - -
25/02:00am 23.7 NE 7 8 1012.9 - 0.0 - - 10 - - - -
25/01:30am 24.2 NE 6 8 1013.0 - 0.0 - - 10 - - - -
25/01:00am 25.5 NE 5 6 1013.2 - 0.0 - - 10 - - - -
25/12:30am 26.0 ENE 5 6 1013.4 - 0.0 - - 10 - - - -
25/12:00am 27.1 ENE 5 7 1013.4 - 0.0 - - 10 - - - -
 
Date/Time
WST
Temp
°C
Wind Pressure Rain since
9am
mm
Weather Cloud Vis
km
Sea
Height
m
Swell
Dir  Spd
kts
Gust
kts
hPa Trend Height
m
Period
s
Dir
24/11:37pm 24.7 NNE 4 6 1013.8 - 0.0 - - 10 - - - -
24/11:30pm 25.0 ENE 2 4 1013.8 - 0.0 - - 10 - - - -
24/11:17pm 24.8 CALM 0 1 1013.8 - 0.0 - - 2 - - - -
24/11:00pm 23.4 ESE 3 4 1013.8 - 0.0 - - 10 - - - -
24/10:30pm 24.0 SSE 7 7 1014.0 - 0.0 - - 10 - - - -
24/10:00pm 24.1 SSE 7 8 1014.1 - 0.0 - - 10 - - - -
24/09:30pm 24.4 SSE 8 9 1014.1 - 0.0 - - 10 - - - -
24/09:00pm 25.5 SE 8 9 1013.8 - 0.0 - - 10 - - - -
24/08:30pm 26.4 SSE 8 9 1014.0 - 0.0 - - 10 - - - -
24/08:00pm 28.3 SSE 12 15 1013.9 - 0.0 - - 10 - - - -
24/07:30pm 28.4 SE 11 13 1013.7 - 0.0 - - 10 - - - -
24/07:00pm 29.4 SSE 11 18 1013.4 - 0.0 - - 10 - - - -
24/06:30pm 31.6 SSE 13 18 1013.0 - 0.0 - - 10 - - - -
24/06:00pm 32.6 S 15 21 1012.6 - 0.0 - - 10 - - - -
24/05:30pm 35.4 S 16 19 1012.6 - 0.0 - - 10 - - - -
24/05:00pm 36.0 S 15 19 1012.6 - 0.0 - - 10 - - - -
24/04:30pm 36.7 SSW 15 20 1012.8 - 0.0 - - 10 - - - -
24/04:00pm 37.5 SSW 17 20 1012.7 - 0.0 - - 10 - - - -
24/03:30pm 37.8 SSW 16 22 1012.9 - 0.0 - - 10 - - - -
24/03:00pm 38.7 SW 16 20 1012.8 - 0.0 - - 10 - - - -
24/02:30pm 38.9 SW 15 21 1013.4 - 0.0 - - 10 - - - -
24/02:00pm 39.4 WSW 14 19 1013.6 - 0.0 - - 10 - - - -
24/01:30pm 39.8 ENE 6 13 1014.3 - 0.0 - - 10 - - - -
24/01:00pm 39.8 E 10 15 1014.5 - 0.0 - - 10 - - - -
24/12:30pm 39.2 ESE 8 13 1014.8 - 0.0 - - 10 - - - -
24/12:00pm 39.9 NNE 10 16 1015.0 - 0.0 - - 10 - - - -
24/11:30am 38.5 NE 14 20 1015.7 - 0.0 - - 10 - - - -
24/11:00am 37.7 NE 19 25 1015.9 - 0.0 - - 10 - - - -
24/10:30am 36.7 NNE 19 25 1016.2 - 0.0 - - 10 - - - -
24/10:00am 36.2 NE 19 25 1016.4 - 0.0 - - 10 - - - -
24/09:30am 33.8 NE 21 28 1016.6 - 0.0 - - 10 - - - -
24/09:00am 32.9 NE 15 21 1016.6 - 0.0 - - 10 - - - -
24/08:30am 31.3 NE 19 24 1017.1 - 0.0 - - 10 - - - -
24/08:00am 29.7 NE 17 20 1016.9 - 0.0 - - 10 - - - -
24/07:30am 28.1 NE 17 24 1016.7 - 0.0 - - 10 - - - -
24/07:00am 25.8 NE 13 18 1016.6 - 0.0 - - 10 - - - -
24/06:50am 24.7 NE 9 16 1016.5 - 0.0 - - 10 - - - -
24/06:30am 19.7 NNE 6 7 1016.4 - 0.0 - - 10 - - - -
24/06:00am 17.8 NE 8 9 1015.9 - 0.0 - - 10 - - - -
24/05:30am 17.1 NE 8 9 1016.0 - 0.0 - - 10 - - - -
24/05:00am 16.8 NE 9 10 1015.8 - 0.0 - - 10 - - - -
24/04:30am 15.8 NE 9 10 1015.7 - 0.0 - - 10 - - - -
24/04:00am 15.1 NE 7 8 1015.8 - 0.0 - - 10 - - - -
24/03:30am 15.5 NE 7 7 1015.8 - 0.0 - - 10 - - - -
24/03:00am 15.1 E 4 4 1015.7 - 0.0 - - 10 - - - -
24/02:30am 16.4 E 4 5 1015.9 - 0.0 - - 10 - - - -
24/02:00am 16.1 E 3 4 1016.1 - 0.0 - - 10 - - - -
24/01:30am 16.5 SE 3 5 1016.4 - 0.0 - - 10 - - - -
24/01:00am 16.8 SE 3 3 1016.6 - 0.0 - - 10 - - - -
24/12:30am 17.8 ESE 1 5 1016.8 - 0.0 - - 10 - - - -
24/12:00am 17.3 ESE 4 4 1016.8 - 0.0 - - 10 - - - -
 
Date/Time
WST
Temp
°C
Wind Pressure Rain since
9am
mm
Weather Cloud Vis
km
Sea
Height
m
Swell
Dir  Spd
kts
Gust
kts
hPa Trend Height
m
Period
s
Dir
23/11:30pm 18.0 SE 4 5 1017.1 - 0.0 - - 10 - - - -
23/11:00pm 18.9 SE 5 6 1017.4 - 0.0 - - 10 - - - -

Other Formats:

Comma delimited format used in spreadsheet applications
http://www.bom.gov.au/fwo/IDW60701/IDW60701.94403.axf

JavaScript Object Notation format (JSON) in row-major order
http://www.bom.gov.au/fwo/IDW60701/IDW60701.94403.json